createdAt,value
2022-10-08T00:01:20.299Z,100768.94
2022-10-08T00:03:50.693Z,100793.53
2022-10-08T00:06:21.141Z,100784.84
2022-10-08T00:08:54.081Z,100790.91
2022-10-08T00:11:40.728Z,100788.44
2022-10-08T00:14:09.423Z,100773.38
2022-10-08T00:16:39.685Z,100777.72
2022-10-08T00:19:10.772Z,100780.41
2022-10-08T00:21:40.222Z,100797.06
2022-10-08T00:24:09.500Z,100785.66
2022-10-08T00:26:42.654Z,100787.78
2022-10-08T00:29:13.909Z,100799.94
2022-10-08T00:31:44.102Z,100785.19
2022-10-08T00:34:14.885Z,100786.09
2022-10-08T00:36:42.169Z,100770.22
2022-10-08T00:39:11.618Z,100794.78
2022-10-08T00:41:39.415Z,100767.63
2022-10-08T00:44:47.293Z,100786.44
2022-10-08T00:47:23.019Z,100786.97
2022-10-08T00:49:53.647Z,100787.16
2022-10-08T00:52:22.789Z,100792.47
2022-10-08T00:54:51.999Z,100722.09
2022-10-08T00:57:21.444Z,100746.66
2022-10-08T00:59:48.556Z,100777.59
2022-10-08T01:02:15.956Z,100792.69
2022-10-08T01:04:44.016Z,100795.22
2022-10-08T01:07:54.382Z,100797.31
2022-10-08T01:10:31.228Z,100795.59
2022-10-08T01:13:11.439Z,100758.84
2022-10-08T01:15:57.077Z,100792.25
2022-10-08T01:18:44.143Z,100793.31
2022-10-08T01:21:11.048Z,100732.59
2022-10-08T01:24:08.768Z,100783.13
2022-10-08T01:27:03.063Z,100786.59
2022-10-08T01:29:41.095Z,100788.25
2022-10-08T01:32:14.116Z,100769.00
2022-10-08T01:34:48.180Z,100766.38
2022-10-08T01:37:38.863Z,100788.00
2022-10-08T01:40:12.519Z,100792.31
2022-10-08T01:42:41.232Z,100801.72
2022-10-08T01:45:13.918Z,100689.31
2022-10-08T01:47:44.284Z,100801.03
2022-10-08T01:50:55.925Z,100798.63
2022-10-08T01:53:26.073Z,100753.63
2022-10-08T01:55:55.856Z,100786.25
2022-10-08T01:58:30.519Z,100792.22
2022-10-08T02:01:05.553Z,100795.81
2022-10-08T02:03:32.682Z,100795.91
2022-10-08T02:06:02.685Z,100785.94
2022-10-08T02:08:29.791Z,100617.34
2022-10-08T02:10:56.923Z,100772.16
2022-10-08T02:13:24.073Z,100770.50
2022-10-08T02:15:54.028Z,100802.97
2022-10-08T02:18:30.607Z,100732.63
2022-10-08T02:21:25.083Z,100802.34
2022-10-08T02:23:58.181Z,100746.09
2022-10-08T02:26:33.763Z,100764.56
2022-10-08T02:29:14.914Z,100777.66
2022-10-08T02:31:50.028Z,100803.94
2022-10-08T02:34:44.761Z,100808.41
2022-10-08T02:37:21.228Z,100808.34
2022-10-08T02:39:56.880Z,100692.03
2022-10-08T02:42:25.830Z,100802.09
2022-10-08T02:45:10.427Z,100814.38
2022-10-08T02:47:40.283Z,100803.16
2022-10-08T02:50:12.753Z,100793.38
2022-10-08T02:52:43.732Z,100792.63
2022-10-08T02:55:40.335Z,100813.75
2022-10-08T02:58:11.024Z,100796.09
2022-10-08T03:00:44.477Z,100796.88
2022-10-08T03:03:19.958Z,100770.63
2022-10-08T03:05:49.115Z,100796.22
2022-10-08T03:08:17.265Z,100792.66
2022-10-08T03:10:45.018Z,100768.91
2022-10-08T03:13:13.144Z,100806.69
2022-10-08T03:15:42.172Z,100775.91
2022-10-08T03:18:11.997Z,100784.06
2022-10-08T03:20:45.083Z,100787.66
2022-10-08T03:23:15.614Z,100772.78
2022-10-08T03:25:42.663Z,100720.03
2022-10-08T03:28:09.840Z,100786.16
2022-10-08T03:30:37.112Z,100791.31
2022-10-08T03:33:04.326Z,100805.16
2022-10-08T03:35:32.119Z,100800.88
2022-10-08T03:37:59.218Z,100778.78
2022-10-08T03:40:26.301Z,100812.16
2022-10-08T03:42:53.240Z,100800.00
2022-10-08T03:45:20.304Z,100792.81
2022-10-08T03:47:51.720Z,100793.59
2022-10-08T03:50:20.851Z,100746.94
2022-10-08T03:52:48.125Z,100781.25
2022-10-08T03:55:15.471Z,100706.53
2022-10-08T03:57:42.413Z,100697.69
2022-10-08T04:00:10.207Z,100795.25
2022-10-08T04:02:37.394Z,100769.13
2022-10-08T04:05:04.717Z,100633.66
2022-10-08T04:07:31.598Z,100810.53
2022-10-08T04:09:58.480Z,100802.72
2022-10-08T04:12:25.537Z,100791.16
2022-10-08T04:14:52.518Z,100781.66
2022-10-08T04:17:19.563Z,100730.75
2022-10-08T04:19:46.612Z,100706.03
2022-10-08T04:22:13.709Z,100776.53
2022-10-08T04:24:40.885Z,100802.84
2022-10-08T04:27:07.920Z,100798.41
2022-10-08T04:29:34.878Z,100793.06
2022-10-08T04:32:01.776Z,100802.81
2022-10-08T04:34:30.017Z,100814.22
2022-10-08T04:36:57.061Z,100802.91
2022-10-08T04:39:23.996Z,100804.69
2022-10-08T04:41:51.082Z,100779.38
2022-10-08T04:44:18.185Z,100818.03
2022-10-08T04:46:45.215Z,100814.56
2022-10-08T04:49:12.278Z,100746.00
2022-10-08T04:51:39.551Z,100788.34
2022-10-08T04:54:06.719Z,100798.88
2022-10-08T04:56:36.346Z,100659.03
2022-10-08T04:59:04.719Z,100827.06
2022-10-08T05:01:31.978Z,100802.41
2022-10-08T05:03:59.629Z,100818.38
2022-10-08T05:06:30.440Z,100812.38
2022-10-08T05:08:59.974Z,100803.63
2022-10-08T05:11:27.694Z,100831.88
2022-10-08T05:13:56.494Z,100786.16
2022-10-08T05:16:24.760Z,100819.78
2022-10-08T05:18:52.725Z,100824.41
2022-10-08T05:21:23.796Z,100828.81
2022-10-08T05:23:55.845Z,100823.72
2022-10-08T05:26:46.580Z,100802.56
2022-10-08T05:29:14.003Z,100802.72
2022-10-08T05:31:40.971Z,100824.81
2022-10-08T05:34:07.998Z,100819.50
2022-10-08T05:36:35.393Z,100837.09
2022-10-08T05:39:04.370Z,100832.66
2022-10-08T05:41:33.953Z,100819.63
2022-10-08T05:44:04.039Z,100810.84
2022-10-08T05:46:32.736Z,100839.84
2022-10-08T05:49:02.250Z,100816.28
2022-10-08T05:51:30.009Z,100740.50
2022-10-08T05:53:59.310Z,100736.97
2022-10-08T05:56:27.993Z,100765.94
2022-10-08T05:58:55.272Z,100826.59
2022-10-08T06:01:25.453Z,100807.00
2022-10-08T06:03:57.374Z,100826.72
2022-10-08T06:06:25.758Z,100761.59
2022-10-08T06:09:02.078Z,100836.50
2022-10-08T06:11:31.087Z,100839.03
2022-10-08T06:14:00.289Z,100820.53
2022-10-08T06:16:29.872Z,100815.31
2022-10-08T06:18:57.173Z,100730.91
2022-10-08T06:21:26.483Z,100766.19
2022-10-08T06:24:00.223Z,100826.00
2022-10-08T06:26:35.194Z,100816.41
2022-10-08T06:29:05.645Z,100846.31
2022-10-08T06:31:34.936Z,100842.91
2022-10-08T06:34:05.467Z,100841.94
2022-10-08T06:36:34.184Z,100794.56
2022-10-08T06:39:13.124Z,100826.59
2022-10-08T06:41:40.089Z,100834.84
2022-10-08T06:44:10.643Z,100770.69
2022-10-08T06:46:38.289Z,100838.69
2022-10-08T06:49:06.892Z,100847.53
2022-10-08T06:51:35.724Z,100817.94
2022-10-08T06:54:07.397Z,100816.53
2022-10-08T06:56:36.573Z,100852.91
2022-10-08T06:59:05.043Z,100845.47
2022-10-08T07:01:34.089Z,100818.69
2022-10-08T07:04:02.425Z,100833.97
2022-10-08T07:06:29.778Z,100830.63
2022-10-08T07:08:59.658Z,100833.28
2022-10-08T07:11:28.019Z,100832.56
2022-10-08T07:13:55.921Z,100831.81
2022-10-08T07:16:24.796Z,100835.53
2022-10-08T07:18:53.438Z,100822.56
2022-10-08T07:21:21.753Z,100830.69
2022-10-08T07:23:49.419Z,100732.59
2022-10-08T07:26:26.063Z,100830.31
2022-10-08T07:29:00.993Z,100828.72
2022-10-08T07:31:31.543Z,100775.28
2022-10-08T07:34:00.541Z,100824.47
2022-10-08T07:36:29.026Z,100818.41
2022-10-08T07:39:01.644Z,100786.75
2022-10-08T07:41:32.669Z,100814.88
2022-10-08T07:44:01.980Z,100813.03
2022-10-08T07:46:42.111Z,100812.25
2022-10-08T07:49:09.199Z,100813.25
2022-10-08T07:51:36.374Z,100817.81
2022-10-08T07:54:06.162Z,100800.44
2022-10-08T07:56:34.675Z,100792.53
2022-10-08T07:59:02.757Z,100813.53
2022-10-08T08:01:31.554Z,100800.91
2022-10-08T08:04:02.323Z,100793.63
2022-10-08T08:06:32.374Z,100783.22
2022-10-08T08:09:02.588Z,100792.81
2022-10-08T08:11:30.376Z,100790.72
2022-10-08T08:13:57.512Z,100783.22
2022-10-08T08:16:26.685Z,100789.69
2022-10-08T08:18:58.233Z,100772.91
2022-10-08T08:21:27.864Z,100756.84
2022-10-08T08:23:56.730Z,100768.22
2022-10-08T08:26:26.765Z,100764.47
2022-10-08T08:28:56.225Z,100781.13
2022-10-08T08:31:24.825Z,100768.66
2022-10-08T08:33:54.811Z,100776.59
2022-10-08T08:36:29.783Z,100781.63
2022-10-08T08:38:57.538Z,100776.69
2022-10-08T08:41:30.454Z,100780.72
2022-10-08T08:44:01.680Z,100776.34
2022-10-08T08:46:32.981Z,100762.47
2022-10-08T08:49:07.735Z,100688.34
2022-10-08T08:51:35.082Z,100777.84
2022-10-08T08:54:02.106Z,100750.13
2022-10-08T08:56:30.006Z,100764.25
2022-10-08T08:58:59.710Z,100761.66
2022-10-08T09:01:37.059Z,100748.69
2022-10-08T09:04:17.581Z,100749.53
2022-10-08T09:06:45.807Z,100759.25
2022-10-08T09:09:28.190Z,100752.28
2022-10-08T09:11:55.866Z,100758.41
2022-10-08T09:14:35.040Z,100671.66
2022-10-08T09:17:14.148Z,100743.44
2022-10-08T09:19:41.611Z,100739.06
2022-10-08T09:22:23.700Z,100725.09
2022-10-08T09:24:54.770Z,100712.81
2022-10-08T09:27:21.922Z,100647.19
2022-10-08T09:29:48.976Z,100694.47
2022-10-08T09:32:20.752Z,100725.06
2022-10-08T09:34:49.001Z,100711.88
2022-10-08T09:37:23.641Z,100661.94
2022-10-08T09:40:08.675Z,100712.56
2022-10-08T09:42:35.670Z,100692.47
2022-10-08T09:45:05.382Z,100638.19
2022-10-08T09:47:32.375Z,100707.91
2022-10-08T09:50:22.012Z,100711.19
2022-10-08T09:52:53.132Z,100692.63
2022-10-08T09:55:31.244Z,100638.38
2022-10-08T09:58:05.791Z,100686.22
2022-10-08T10:00:38.355Z,100693.19
2022-10-08T10:03:07.747Z,100685.16
2022-10-08T10:05:37.030Z,100650.72
2022-10-08T10:08:04.636Z,100674.06
2022-10-08T10:10:38.729Z,100669.00
2022-10-08T10:13:34.512Z,100641.13
2022-10-08T10:16:10.405Z,100670.16
2022-10-08T10:18:49.090Z,100657.19
2022-10-08T10:21:21.330Z,100638.28
2022-10-08T10:24:23.684Z,100650.63
2022-10-08T10:26:54.415Z,100639.50
2022-10-08T10:29:25.367Z,100612.59
2022-10-08T10:32:04.087Z,100636.16
2022-10-08T10:34:36.328Z,100624.91
2022-10-08T10:37:14.124Z,100640.63
2022-10-08T10:40:16.367Z,100617.81
2022-10-08T10:42:56.175Z,100631.13
2022-10-08T10:45:31.325Z,100632.06
2022-10-08T10:47:58.474Z,100638.22
2022-10-08T10:50:35.289Z,100627.72
2022-10-08T10:53:08.834Z,100629.44
2022-10-08T10:55:44.890Z,100626.94
2022-10-08T10:58:28.159Z,100632.25
2022-10-08T11:01:03.510Z,100592.00
2022-10-08T11:03:57.642Z,100530.78
2022-10-08T11:06:39.788Z,100625.28
2022-10-08T11:09:09.893Z,100606.06
2022-10-08T11:11:44.554Z,100623.53
2022-10-08T11:14:38.668Z,100599.94
2022-10-08T11:17:31.699Z,100617.41
2022-10-08T11:20:10.656Z,100609.53
2022-10-08T11:23:06.075Z,100603.41
2022-10-08T11:26:10.689Z,100581.56
2022-10-08T11:29:07.303Z,100602.53
2022-10-08T11:31:50.958Z,100591.97
2022-10-08T11:34:32.975Z,100609.47
2022-10-08T11:37:19.009Z,100589.31
2022-10-08T11:40:07.677Z,100591.91
2022-10-08T11:43:08.718Z,100578.75
2022-10-08T11:45:46.186Z,100584.94
2022-10-08T11:48:34.674Z,100577.09
2022-10-08T11:51:20.178Z,100578.03
2022-10-08T11:54:26.257Z,100564.03
2022-10-08T11:57:55.910Z,100564.03
2022-10-08T12:00:41.976Z,100554.44
2022-10-08T12:03:24.137Z,100546.56
2022-10-08T12:05:54.591Z,100542.16
2022-10-08T12:08:53.443Z,100551.81
2022-10-08T12:11:29.876Z,100545.69
2022-10-08T12:14:14.908Z,100515.94
2022-10-08T12:16:47.927Z,100476.63
2022-10-08T12:19:36.178Z,100542.22
2022-10-08T12:22:25.205Z,100519.47
2022-10-08T12:24:57.110Z,100534.34
2022-10-08T12:27:25.371Z,100545.72
2022-10-08T12:30:14.347Z,100533.47
2022-10-08T12:32:44.226Z,100532.59
2022-10-08T12:35:40.194Z,100521.19
2022-10-08T12:38:16.311Z,100522.09
2022-10-08T12:40:58.974Z,100501.13
2022-10-08T12:44:06.833Z,100454.78
2022-10-08T12:46:52.966Z,100511.59
2022-10-08T12:50:18.833Z,100518.63
2022-10-08T12:52:46.491Z,100485.38
2022-10-08T12:55:19.868Z,100481.88
2022-10-08T12:57:50.375Z,100500.25
2022-10-08T13:00:25.531Z,100409.31
2022-10-08T13:03:00.922Z,100489.78
2022-10-08T13:05:35.818Z,100481.91
2022-10-08T13:08:42.777Z,100490.66
2022-10-08T13:11:15.422Z,100486.28
2022-10-08T13:13:51.350Z,100470.50
2022-10-08T13:16:24.491Z,100487.09
2022-10-08T13:18:59.878Z,100468.75
2022-10-08T13:21:32.939Z,100481.81
2022-10-08T13:24:03.081Z,100360.34
2022-10-08T13:26:59.308Z,100476.59
2022-10-08T13:29:34.376Z,100393.50
2022-10-08T13:32:06.613Z,100460.00
2022-10-08T13:34:39.400Z,100463.47
2022-10-08T13:37:11.255Z,100446.84
2022-10-08T13:39:41.738Z,100452.09
2022-10-08T13:42:16.906Z,100438.09
2022-10-08T13:44:44.812Z,100448.56
2022-10-08T13:47:17.687Z,100462.56
2022-10-08T13:49:45.122Z,100453.78
2022-10-08T13:52:24.459Z,100449.44
2022-10-08T13:54:58.984Z,100461.66
2022-10-08T13:57:26.343Z,100391.66
2022-10-08T13:59:53.460Z,100448.50
2022-10-08T14:02:20.605Z,100292.88
2022-10-08T14:04:47.615Z,100437.16
2022-10-08T14:07:35.649Z,100463.41
2022-10-08T14:10:03.904Z,100359.31
2022-10-08T14:12:34.090Z,100447.66
2022-10-08T14:15:01.574Z,100451.16
2022-10-08T14:17:30.314Z,100454.63
2022-10-08T14:19:57.490Z,100427.53
2022-10-08T14:22:25.066Z,100380.22
2022-10-08T14:24:52.706Z,100465.06
2022-10-08T14:27:19.799Z,100389.84
2022-10-08T14:29:46.762Z,100380.19
2022-10-08T14:32:13.944Z,100432.66
2022-10-08T14:34:41.138Z,100437.03
2022-10-08T14:37:09.750Z,100462.38
2022-10-08T14:39:36.747Z,100422.13
2022-10-08T14:42:04.044Z,100440.56
2022-10-08T14:44:31.106Z,100450.13
2022-10-08T14:46:58.092Z,100444.84
2022-10-08T14:49:25.061Z,100352.97
2022-10-08T14:51:52.032Z,100438.72
2022-10-08T14:54:19.410Z,100442.16
2022-10-08T14:56:46.699Z,100442.16
2022-10-08T14:59:14.106Z,100439.47
2022-10-08T15:01:41.292Z,100410.63
2022-10-08T15:04:08.834Z,100424.56
2022-10-08T15:06:36.081Z,100426.28
2022-10-08T15:09:03.222Z,100437.66
2022-10-08T15:11:30.319Z,100439.34
2022-10-08T15:13:58.844Z,100435.00
2022-10-08T15:16:25.955Z,100437.59
2022-10-08T15:18:52.954Z,100427.06
2022-10-08T15:21:20.065Z,100446.28
2022-10-08T15:23:47.216Z,100422.66
2022-10-08T15:26:16.240Z,100442.69
2022-10-08T15:28:44.611Z,100361.38
2022-10-08T15:31:19.215Z,100433.13
2022-10-08T15:33:48.614Z,100419.13
2022-10-08T15:36:24.051Z,100427.88
2022-10-08T15:39:01.125Z,100434.84
2022-10-08T15:41:30.742Z,100412.03
2022-10-08T15:44:08.945Z,100377.97
2022-10-08T15:46:36.572Z,100428.66
2022-10-08T15:49:03.965Z,100401.47
2022-10-08T15:51:32.080Z,100404.03
2022-10-08T15:54:00.019Z,100376.03
2022-10-08T15:56:27.798Z,100307.75
2022-10-08T15:58:55.050Z,100389.03
2022-10-08T16:01:23.639Z,100313.81
2022-10-08T16:03:53.275Z,100375.03
2022-10-08T16:06:27.177Z,100411.00
2022-10-08T16:08:57.133Z,100395.13
2022-10-08T16:11:27.828Z,100400.41
2022-10-08T16:13:58.931Z,100403.94
2022-10-08T16:16:26.170Z,100361.97
2022-10-08T16:19:02.081Z,100385.66
2022-10-08T16:21:30.392Z,100314.72
2022-10-08T16:23:58.615Z,100316.47
2022-10-08T16:26:26.377Z,100379.50
2022-10-08T16:28:56.970Z,100417.03
2022-10-08T16:31:25.812Z,100417.88
2022-10-08T16:34:01.229Z,100384.66
2022-10-08T16:36:30.530Z,100411.78
2022-10-08T16:38:58.368Z,100244.63
2022-10-08T16:41:27.718Z,100313.72
2022-10-08T16:43:57.841Z,100404.75
2022-10-08T16:46:29.826Z,100403.00
2022-10-08T16:49:02.538Z,100398.59
2022-10-08T16:51:31.715Z,100399.47
2022-10-08T16:54:00.180Z,100367.06
2022-10-08T16:56:29.979Z,100388.91
2022-10-08T16:58:59.562Z,100392.44
2022-10-08T17:01:27.088Z,100351.25
2022-10-08T17:03:55.056Z,100393.25
2022-10-08T17:06:23.856Z,100289.97
2022-10-08T17:08:52.136Z,100373.91
2022-10-08T17:11:20.810Z,100394.00
2022-10-08T17:13:50.810Z,100341.47
2022-10-08T17:16:20.255Z,100380.00
2022-10-08T17:18:47.533Z,100379.13
2022-10-08T17:21:14.916Z,100385.19
2022-10-08T17:23:42.443Z,100365.94
2022-10-08T17:26:12.733Z,100370.31
2022-10-08T17:28:43.812Z,100382.59
2022-10-08T17:31:16.796Z,100295.09
2022-10-08T17:33:44.305Z,100373.88
2022-10-08T17:36:16.006Z,100301.19
2022-10-08T17:38:44.643Z,100359.84
2022-10-08T17:41:15.049Z,100342.44
2022-10-08T17:43:43.266Z,100360.84
2022-10-08T17:46:13.171Z,100304.88
2022-10-08T17:48:41.009Z,100272.44
2022-10-08T17:51:11.329Z,100362.59
2022-10-08T17:53:39.060Z,100352.94
2022-10-08T17:56:08.388Z,100357.28
2022-10-08T17:58:36.081Z,100349.47
2022-10-08T18:01:15.285Z,100346.03
2022-10-08T18:03:44.406Z,100267.31
2022-10-08T18:06:12.354Z,100313.72
2022-10-08T18:08:39.487Z,100343.44
2022-10-08T18:11:10.009Z,100261.22
2022-10-08T18:13:38.083Z,100336.47
2022-10-08T18:16:14.570Z,100335.63
2022-10-08T18:18:43.519Z,100315.53
2022-10-08T18:21:12.755Z,100341.72
2022-10-08T18:23:43.210Z,100334.75
2022-10-08T18:26:21.724Z,100250.84
2022-10-08T18:28:51.886Z,100311.13
2022-10-08T18:31:20.636Z,100265.63
2022-10-08T18:33:50.359Z,100336.44
2022-10-08T18:36:20.232Z,100335.53
2022-10-08T18:38:52.912Z,100334.66
2022-10-08T18:41:29.240Z,100247.22
2022-10-08T18:43:59.235Z,100341.69
2022-10-08T18:46:27.109Z,100345.16
2022-10-08T18:48:55.327Z,100345.13
2022-10-08T18:51:25.244Z,100345.19
2022-10-08T18:53:53.955Z,100312.88
2022-10-08T18:56:29.328Z,100326.09
2022-10-08T18:58:58.310Z,100350.53
2022-10-08T19:01:27.609Z,100355.75
2022-10-08T19:03:57.115Z,100354.03
2022-10-08T19:06:27.522Z,100367.94
2022-10-08T19:08:59.911Z,100348.72
2022-10-08T19:11:42.003Z,100361.78
2022-10-08T19:14:13.030Z,100356.56
2022-10-08T19:16:40.648Z,100325.97
2022-10-08T19:19:12.317Z,100352.25
2022-10-08T19:21:39.438Z,100350.53
2022-10-08T19:24:08.518Z,100331.19
2022-10-08T19:26:35.525Z,100356.53
2022-10-08T19:29:02.681Z,100344.25
2022-10-08T19:31:32.549Z,100356.50
2022-10-08T19:34:04.845Z,100268.13
2022-10-08T19:36:34.883Z,100348.59
2022-10-08T19:39:05.806Z,100355.56
2022-10-08T19:41:33.479Z,100349.47
2022-10-08T19:44:00.774Z,100373.84
2022-10-08T19:46:28.600Z,100366.91
2022-10-08T19:48:58.066Z,100339.69
2022-10-08T19:51:27.322Z,100365.13
2022-10-08T19:53:54.863Z,100376.44
2022-10-08T19:56:22.846Z,100368.53
2022-10-08T19:58:53.312Z,100322.22
2022-10-08T20:01:34.595Z,100274.97
2022-10-08T20:04:03.524Z,100263.59
2022-10-08T20:06:32.885Z,100360.69
2022-10-08T20:09:02.735Z,100364.22
2022-10-08T20:11:31.342Z,100318.72
2022-10-08T20:13:59.608Z,100371.19
2022-10-08T20:16:29.809Z,100366.78
2022-10-08T20:19:22.661Z,100325.66
2022-10-08T20:21:51.565Z,100330.84
2022-10-08T20:24:19.376Z,100359.75
2022-10-08T20:26:46.586Z,100334.41
2022-10-08T20:29:19.069Z,100251.22
2022-10-08T20:31:49.643Z,100279.22
2022-10-08T20:34:23.616Z,100364.91
2022-10-08T20:36:51.009Z,100356.13
2022-10-08T20:39:20.496Z,100344.75
2022-10-08T20:41:48.338Z,100349.09
2022-10-08T20:44:15.743Z,100350.75
2022-10-08T20:46:43.609Z,100333.28
2022-10-08T20:49:13.054Z,100313.28
2022-10-08T20:51:41.932Z,100321.97
2022-10-08T20:54:14.523Z,100325.53
2022-10-08T20:56:43.578Z,100338.59
2022-10-08T20:59:15.473Z,100333.38
2022-10-08T21:01:42.506Z,100305.38
2022-10-08T21:04:09.495Z,100327.13
2022-10-08T21:06:42.607Z,100338.56
2022-10-08T21:09:10.545Z,100306.16
2022-10-08T21:11:38.171Z,100333.25
2022-10-08T21:14:07.199Z,100334.16
2022-10-08T21:16:37.241Z,100342.84
2022-10-08T21:19:07.430Z,100318.38
2022-10-08T21:21:34.934Z,100332.34
2022-10-08T21:24:01.967Z,100329.78
2022-10-08T21:26:31.244Z,100333.19
2022-10-08T21:29:00.886Z,100325.38
2022-10-08T21:31:31.157Z,100264.97
2022-10-08T21:33:59.188Z,100261.56
2022-10-08T21:36:37.808Z,100319.31
2022-10-08T21:39:06.845Z,100317.53
2022-10-08T21:41:35.538Z,100321.03
2022-10-08T21:44:05.242Z,100321.03
2022-10-08T21:46:34.760Z,100325.38
2022-10-08T21:49:08.163Z,100327.19
2022-10-08T21:51:35.451Z,100311.47
2022-10-08T21:54:04.804Z,100231.78
2022-10-08T21:56:34.572Z,100314.09
2022-10-08T21:59:02.807Z,100307.06
2022-10-08T22:01:35.271Z,100299.16
2022-10-08T22:04:08.258Z,100291.34
2022-10-08T22:06:40.921Z,100299.16
2022-10-08T22:09:12.020Z,100310.59
2022-10-08T22:11:39.658Z,100297.47
2022-10-08T22:14:07.309Z,100279.03
2022-10-08T22:16:34.649Z,100301.81
2022-10-08T22:19:01.621Z,100305.38
2022-10-08T22:21:28.712Z,100215.13
2022-10-08T22:23:55.961Z,100281.66
2022-10-08T22:26:28.999Z,100303.50
2022-10-08T22:28:57.037Z,100185.41
2022-10-08T22:31:25.195Z,100294.75
2022-10-08T22:33:52.642Z,100279.91
2022-10-08T22:36:28.103Z,100291.28
2022-10-08T22:38:56.035Z,100289.44
2022-10-08T22:41:29.226Z,100264.97
2022-10-08T22:43:56.301Z,100214.25
2022-10-08T22:46:36.402Z,100295.53
2022-10-08T22:49:07.297Z,100229.00
2022-10-08T22:51:34.785Z,100276.28
2022-10-08T22:54:01.878Z,100222.88
2022-10-08T22:56:30.837Z,100291.09
2022-10-08T22:58:59.361Z,100261.41
2022-10-08T23:01:27.976Z,100282.44
2022-10-08T23:03:55.430Z,100258.78
2022-10-08T23:06:24.156Z,100261.41
2022-10-08T23:08:57.265Z,100242.22
2022-10-08T23:11:24.880Z,100214.16
2022-10-08T23:13:54.725Z,100263.16
2022-10-08T23:16:22.495Z,100251.75
2022-10-08T23:19:01.321Z,100249.25
2022-10-08T23:21:28.892Z,100263.16
2022-10-08T23:23:56.382Z,100248.28
2022-10-08T23:26:24.780Z,100246.56
2022-10-08T23:28:54.244Z,100155.56
2022-10-08T23:31:23.817Z,100244.00
2022-10-08T23:33:52.509Z,100231.72
2022-10-08T23:36:30.449Z,100245.72
2022-10-08T23:38:57.634Z,100229.13
2022-10-08T23:41:26.075Z,100213.44
2022-10-08T23:43:54.352Z,100232.66
2022-10-08T23:46:23.997Z,100236.13
2022-10-08T23:48:51.847Z,100214.25
2022-10-08T23:51:20.039Z,100231.75
2022-10-08T23:53:48.195Z,100228.22
2022-10-08T23:56:15.484Z,100219.38
2022-10-08T23:58:42.810Z,100223.81
